createdAt,value
2017-07-21T00:00:37.362Z,17.0
2017-07-21T00:01:38.762Z,17.1
2017-07-21T00:02:40.159Z,17.0
2017-07-21T00:03:41.556Z,17.1
2017-07-21T00:04:42.956Z,17.1
2017-07-21T00:05:44.383Z,17.0
2017-07-21T00:06:45.750Z,17.0
2017-07-21T00:07:47.153Z,17.1
2017-07-21T00:08:48.551Z,17.0
2017-07-21T00:09:49.951Z,17.0
2017-07-21T00:10:51.350Z,17.0
2017-07-21T00:11:52.746Z,17.0
2017-07-21T00:12:54.146Z,17.0
2017-07-21T00:13:55.545Z,17.0
2017-07-21T00:14:56.938Z,17.0
2017-07-21T00:15:58.338Z,17.1
2017-07-21T00:16:59.736Z,17.0
2017-07-21T00:18:01.134Z,17.0
2017-07-21T00:19:02.534Z,17.0
2017-07-21T00:20:03.934Z,16.9
2017-07-21T00:21:05.335Z,16.8
2017-07-21T00:22:06.728Z,16.8
2017-07-21T00:23:08.138Z,16.8
2017-07-21T00:24:09.541Z,16.8
2017-07-21T00:25:10.938Z,16.9
2017-07-21T00:26:12.337Z,16.7
2017-07-21T00:27:13.735Z,16.7
2017-07-21T00:28:15.135Z,16.7
2017-07-21T00:29:16.532Z,16.7
2017-07-21T00:30:17.938Z,16.6
2017-07-21T00:31:19.343Z,16.7
2017-07-21T00:32:20.743Z,16.6
2017-07-21T00:33:22.150Z,16.6
2017-07-21T00:34:23.557Z,16.6
2017-07-21T00:35:24.957Z,16.6
2017-07-21T00:36:26.354Z,16.6
2017-07-21T00:37:27.756Z,16.4
2017-07-21T00:38:29.160Z,16.4
2017-07-21T00:39:30.557Z,16.5
2017-07-21T00:40:31.955Z,16.5
2017-07-21T00:41:33.357Z,16.5
2017-07-21T00:42:34.761Z,16.3
2017-07-21T00:43:36.156Z,16.4
2017-07-21T00:44:37.555Z,16.4
2017-07-21T00:45:38.954Z,16.3
2017-07-21T00:46:40.352Z,16.4
2017-07-21T00:47:41.747Z,16.4
2017-07-21T00:48:43.149Z,16.4
2017-07-21T00:49:44.544Z,16.4
2017-07-21T00:50:45.944Z,16.4
2017-07-21T00:51:47.368Z,16.4
2017-07-21T00:52:48.765Z,16.4
2017-07-21T00:53:50.164Z,16.3
2017-07-21T00:54:51.566Z,16.3
2017-07-21T00:55:52.958Z,16.3
2017-07-21T00:56:54.360Z,16.4
2017-07-21T00:57:55.766Z,16.3
2017-07-21T00:58:57.197Z,16.3
2017-07-21T00:59:58.597Z,16.3
2017-07-21T01:00:59.993Z,16.2
2017-07-21T01:02:01.392Z,16.3
2017-07-21T01:03:02.789Z,16.3
2017-07-21T01:04:04.188Z,16.3
2017-07-21T01:05:05.587Z,16.3
2017-07-21T01:06:06.989Z,16.3
2017-07-21T01:07:08.393Z,16.2
2017-07-21T01:08:09.785Z,16.2
2017-07-21T01:09:11.184Z,16.2
2017-07-21T01:10:12.581Z,16.2
2017-07-21T01:11:13.979Z,16.2
2017-07-21T01:12:15.377Z,16.2
2017-07-21T01:13:16.775Z,16.3
2017-07-21T01:14:18.180Z,16.1
2017-07-21T01:15:19.574Z,16.2
2017-07-21T01:16:20.974Z,16.2
2017-07-21T01:17:22.400Z,16.2
2017-07-21T01:18:23.800Z,16.2
2017-07-21T01:19:25.200Z,16.2
2017-07-21T01:20:26.609Z,16.2
2017-07-21T01:21:28.004Z,16.1
2017-07-21T01:22:29.400Z,16.1
2017-07-21T01:23:30.798Z,16.1
2017-07-21T01:24:32.196Z,16.1
2017-07-21T01:25:33.595Z,16.1
2017-07-21T01:26:35.006Z,16.0
2017-07-21T01:27:36.403Z,16.1
2017-07-21T01:28:37.804Z,16.1
2017-07-21T01:29:39.197Z,16.1
2017-07-21T01:30:40.594Z,16.1
2017-07-21T01:31:41.996Z,16.0
2017-07-21T01:32:43.391Z,15.9
2017-07-21T01:33:44.793Z,15.9
2017-07-21T01:34:46.190Z,15.9
2017-07-21T01:35:47.588Z,15.9
2017-07-21T01:36:48.987Z,15.9
2017-07-21T01:37:50.389Z,15.8
2017-07-21T01:38:51.781Z,15.7
2017-07-21T01:39:53.178Z,15.8
2017-07-21T01:40:54.577Z,15.8
2017-07-21T01:41:55.980Z,15.7
2017-07-21T01:42:57.379Z,15.7
2017-07-21T01:43:58.775Z,15.7
2017-07-21T01:45:00.171Z,15.7
2017-07-21T01:46:01.569Z,15.7
2017-07-21T01:47:02.980Z,15.7
2017-07-21T01:48:04.382Z,15.7
2017-07-21T01:49:05.782Z,15.6
2017-07-21T01:50:07.201Z,15.6
2017-07-21T01:51:08.596Z,15.7
2017-07-21T01:52:09.992Z,15.6
2017-07-21T01:53:11.388Z,15.5
2017-07-21T01:54:12.787Z,15.5
2017-07-21T01:55:14.180Z,15.5
2017-07-21T01:56:15.583Z,15.5
2017-07-21T01:57:16.986Z,15.6
2017-07-21T01:58:18.382Z,15.5
2017-07-21T01:59:19.779Z,15.5
2017-07-21T02:00:21.189Z,15.5
2017-07-21T02:01:22.589Z,15.5
2017-07-21T02:02:23.986Z,15.5
2017-07-21T02:03:25.385Z,15.5
2017-07-21T02:04:26.786Z,15.5
2017-07-21T02:05:28.181Z,15.4
2017-07-21T02:06:29.593Z,15.4
2017-07-21T02:07:30.980Z,15.5
2017-07-21T02:08:32.377Z,15.4
2017-07-21T02:09:33.774Z,15.4
2017-07-21T02:10:35.174Z,15.4
2017-07-21T02:11:36.579Z,15.4
2017-07-21T02:12:37.974Z,15.4
2017-07-21T02:13:39.374Z,15.4
2017-07-21T02:14:40.776Z,15.3
2017-07-21T02:15:42.172Z,15.3
2017-07-21T02:16:43.580Z,15.3
2017-07-21T02:17:44.976Z,15.3
2017-07-21T02:18:46.380Z,15.3
2017-07-21T02:19:47.798Z,15.3
2017-07-21T02:20:49.185Z,15.3
2017-07-21T02:21:50.581Z,15.3
2017-07-21T02:22:51.989Z,15.2
2017-07-21T02:23:53.392Z,15.3
2017-07-21T02:24:54.793Z,15.2
2017-07-21T02:25:56.199Z,15.2
2017-07-21T02:26:57.589Z,15.3
2017-07-21T02:27:58.981Z,15.3
2017-07-21T02:29:00.382Z,15.2
2017-07-21T02:30:01.779Z,15.2
2017-07-21T02:31:03.179Z,15.1
2017-07-21T02:32:04.579Z,15.2
2017-07-21T02:33:05.979Z,15.1
2017-07-21T02:34:07.374Z,15.2
2017-07-21T02:35:08.773Z,15.2
2017-07-21T02:36:10.170Z,15.1
2017-07-21T02:37:11.565Z,15.2
2017-07-21T02:38:12.967Z,15.1
2017-07-21T02:39:14.365Z,15.2
2017-07-21T02:40:15.769Z,15.2
2017-07-21T02:41:17.165Z,15.1
2017-07-21T02:42:18.562Z,15.1
2017-07-21T02:43:19.957Z,15.1
2017-07-21T02:44:21.362Z,15.1
2017-07-21T02:45:22.755Z,15.0
2017-07-21T02:46:24.152Z,15.0
2017-07-21T02:47:25.557Z,15.1
2017-07-21T02:48:26.955Z,15.0
2017-07-21T02:49:28.349Z,15.1
2017-07-21T02:50:29.744Z,15.1
2017-07-21T02:51:31.141Z,15.0
2017-07-21T02:52:32.545Z,15.0
2017-07-21T02:53:33.943Z,15.0
2017-07-21T02:54:35.343Z,15.0
2017-07-21T02:55:36.741Z,14.9
2017-07-21T02:56:38.134Z,15.0
2017-07-21T02:57:39.531Z,15.0
2017-07-21T02:58:40.926Z,15.0
2017-07-21T02:59:42.329Z,14.9
2017-07-21T03:00:43.728Z,15.0
2017-07-21T03:01:45.137Z,14.9
2017-07-21T03:02:46.536Z,14.9
2017-07-21T03:03:47.939Z,14.9
2017-07-21T03:04:49.336Z,14.8
2017-07-21T03:05:50.733Z,14.8
2017-07-21T03:06:52.127Z,14.8
2017-07-21T03:07:53.528Z,14.8
2017-07-21T03:08:54.926Z,14.8
2017-07-21T03:09:56.323Z,14.8
2017-07-21T03:10:57.719Z,14.8
2017-07-21T03:11:59.119Z,14.7
2017-07-21T03:13:00.517Z,14.8
2017-07-21T03:14:01.925Z,14.7
2017-07-21T03:15:03.325Z,14.7
2017-07-21T03:16:04.723Z,14.7
2017-07-21T03:17:06.119Z,14.7
2017-07-21T03:18:07.515Z,14.7
2017-07-21T03:19:08.913Z,14.5
2017-07-21T03:20:10.319Z,14.6
2017-07-21T03:21:11.711Z,14.5
2017-07-21T03:22:13.107Z,14.5
2017-07-21T03:23:14.506Z,14.5
2017-07-21T03:24:15.903Z,14.5
2017-07-21T03:25:17.300Z,14.5
2017-07-21T03:26:18.699Z,14.4
2017-07-21T03:27:20.157Z,14.5
2017-07-21T03:28:21.556Z,14.4
2017-07-21T03:29:22.968Z,14.4
2017-07-21T03:30:24.367Z,14.5
2017-07-21T03:31:25.764Z,14.4
2017-07-21T03:32:27.162Z,14.4
2017-07-21T03:33:28.560Z,14.4
2017-07-21T03:34:29.956Z,14.4
2017-07-21T03:35:31.359Z,14.4
2017-07-21T03:36:32.759Z,14.4
2017-07-21T03:37:34.158Z,14.4
2017-07-21T03:38:35.555Z,14.4
2017-07-21T03:39:36.953Z,14.4
2017-07-21T03:40:38.353Z,14.3
2017-07-21T03:41:39.753Z,14.4
2017-07-21T03:42:41.153Z,14.3
2017-07-21T03:43:42.563Z,14.4
2017-07-21T03:44:43.965Z,14.3
2017-07-21T03:45:45.371Z,14.4
2017-07-21T03:46:46.769Z,14.4
2017-07-21T03:47:48.168Z,14.3
2017-07-21T03:48:49.572Z,14.4
2017-07-21T03:49:50.973Z,14.4
2017-07-21T03:50:52.383Z,14.4
2017-07-21T03:51:53.835Z,14.4
2017-07-21T03:52:55.231Z,14.4
2017-07-21T03:53:56.630Z,14.3
2017-07-21T03:54:58.036Z,14.4
2017-07-21T03:55:59.438Z,14.4
2017-07-21T03:57:00.843Z,14.4
2017-07-21T03:58:02.237Z,14.4
2017-07-21T03:59:03.643Z,14.4
2017-07-21T04:00:05.051Z,14.3
2017-07-21T04:01:06.449Z,14.3
2017-07-21T04:02:07.854Z,14.3
2017-07-21T04:03:09.253Z,14.3
2017-07-21T04:04:10.657Z,14.3
2017-07-21T04:05:12.108Z,14.3
2017-07-21T04:06:13.501Z,14.4
2017-07-21T04:07:14.918Z,14.4
2017-07-21T04:08:16.380Z,14.3
2017-07-21T04:09:17.954Z,14.3
2017-07-21T04:10:19.386Z,14.4
2017-07-21T04:11:20.808Z,14.4
2017-07-21T04:12:22.356Z,14.4
2017-07-21T04:13:23.846Z,14.4
2017-07-21T04:14:25.289Z,14.3
2017-07-21T04:15:26.690Z,14.4
2017-07-21T04:16:28.109Z,14.3
2017-07-21T04:17:29.488Z,14.4
2017-07-21T04:18:30.886Z,14.4
2017-07-21T04:19:32.288Z,14.3
2017-07-21T04:20:33.702Z,14.4
2017-07-21T04:21:35.105Z,14.4
2017-07-21T04:22:36.536Z,14.4
2017-07-21T04:23:37.952Z,14.4
2017-07-21T04:24:39.352Z,14.3
2017-07-21T04:25:40.756Z,14.3
2017-07-21T04:26:42.156Z,14.5
2017-07-21T04:27:43.556Z,14.4
2017-07-21T04:28:45.012Z,14.3
2017-07-21T04:29:46.415Z,14.4
2017-07-21T04:30:47.813Z,14.4
2017-07-21T04:31:49.262Z,14.4
2017-07-21T04:32:50.668Z,14.3
2017-07-21T04:33:52.071Z,14.4
2017-07-21T04:34:53.473Z,14.4
2017-07-21T04:35:54.876Z,14.4
2017-07-21T04:36:56.272Z,14.4
2017-07-21T04:37:57.674Z,14.3
2017-07-21T04:38:59.072Z,14.4
2017-07-21T04:40:00.475Z,14.4
2017-07-21T04:41:01.946Z,14.4
2017-07-21T04:42:03.349Z,14.3
2017-07-21T04:43:04.816Z,14.3
2017-07-21T04:44:06.215Z,14.4
2017-07-21T04:45:07.612Z,14.5
2017-07-21T04:46:09.010Z,14.5
2017-07-21T04:47:10.412Z,14.4
2017-07-21T04:48:11.835Z,14.5
2017-07-21T04:49:13.219Z,14.5
2017-07-21T04:50:14.617Z,14.5
2017-07-21T04:51:16.016Z,14.6
2017-07-21T04:52:17.418Z,14.5
2017-07-21T04:53:18.822Z,14.6
2017-07-21T04:54:20.223Z,14.6
2017-07-21T04:55:21.624Z,14.6
2017-07-21T04:56:23.036Z,14.7
2017-07-21T04:57:24.437Z,14.7
2017-07-21T04:58:25.845Z,14.7
2017-07-21T04:59:27.244Z,14.8
2017-07-21T05:00:28.647Z,14.8
2017-07-21T05:01:30.049Z,14.9
2017-07-21T05:02:31.450Z,14.7
2017-07-21T05:03:32.852Z,14.8
2017-07-21T05:04:34.253Z,14.9
2017-07-21T05:05:35.652Z,14.9
2017-07-21T05:06:37.061Z,14.9
2017-07-21T05:07:38.547Z,14.9
2017-07-21T05:08:39.955Z,15.1
2017-07-21T05:09:41.359Z,15.0
2017-07-21T05:10:42.758Z,15.1
2017-07-21T05:11:44.233Z,15.1
2017-07-21T05:12:45.695Z,15.1
2017-07-21T05:13:47.105Z,15.2
2017-07-21T05:14:48.508Z,15.2
2017-07-21T05:15:49.906Z,15.2
2017-07-21T05:16:51.311Z,15.2
2017-07-21T05:17:52.716Z,15.4
2017-07-21T05:18:54.113Z,15.3
2017-07-21T05:19:55.512Z,15.3
2017-07-21T05:20:56.911Z,15.4
2017-07-21T05:21:58.313Z,15.4
2017-07-21T05:22:59.770Z,15.4
2017-07-21T05:24:01.172Z,15.4
2017-07-21T05:25:02.576Z,15.5
2017-07-21T05:26:03.974Z,15.5
2017-07-21T05:27:05.369Z,15.5
2017-07-21T05:28:06.776Z,15.6
2017-07-21T05:29:08.175Z,15.6
2017-07-21T05:30:09.577Z,15.6
2017-07-21T05:31:10.981Z,15.6
2017-07-21T05:32:12.378Z,15.6
2017-07-21T05:33:13.777Z,15.6
2017-07-21T05:34:15.179Z,15.7
2017-07-21T05:35:16.583Z,15.7
2017-07-21T05:36:17.994Z,15.7
2017-07-21T05:37:19.395Z,15.7
2017-07-21T05:38:20.800Z,15.9
2017-07-21T05:39:22.203Z,16.0
2017-07-21T05:40:23.600Z,15.9
2017-07-21T05:41:25.000Z,15.9
2017-07-21T05:42:26.407Z,16.0
2017-07-21T05:43:27.812Z,16.0
2017-07-21T05:44:29.216Z,16.1
2017-07-21T05:45:30.616Z,16.1
2017-07-21T05:46:32.023Z,16.3
2017-07-21T05:47:33.420Z,16.2
2017-07-21T05:48:34.824Z,16.2
2017-07-21T05:49:36.229Z,16.3
2017-07-21T05:50:37.648Z,16.3
2017-07-21T05:51:39.042Z,16.3
2017-07-21T05:52:40.445Z,16.3
2017-07-21T05:53:41.852Z,16.4
2017-07-21T05:54:43.251Z,16.5
2017-07-21T05:55:44.654Z,16.5
2017-07-21T05:56:46.700Z,16.4
2017-07-21T05:57:48.097Z,16.6
2017-07-21T05:58:49.498Z,16.6
2017-07-21T05:59:50.900Z,16.6
2017-07-21T06:00:52.305Z,16.6
2017-07-21T06:01:53.708Z,16.6
2017-07-21T06:02:55.120Z,16.7
2017-07-21T06:03:56.518Z,16.6
2017-07-21T06:04:57.922Z,16.8
2017-07-21T06:05:59.329Z,16.8
2017-07-21T06:07:00.729Z,16.8
2017-07-21T06:08:02.138Z,16.9
2017-07-21T06:09:03.527Z,17.0
2017-07-21T06:10:04.937Z,16.9
2017-07-21T06:11:06.338Z,17.0
2017-07-21T06:12:07.740Z,17.0
2017-07-21T06:13:09.147Z,17.1
2017-07-21T06:14:10.554Z,17.0
2017-07-21T06:15:11.958Z,17.2
2017-07-21T06:16:13.364Z,17.2
2017-07-21T06:17:14.770Z,17.1
2017-07-21T06:18:16.169Z,17.2
2017-07-21T06:19:17.576Z,17.2
2017-07-21T06:20:18.985Z,17.2
2017-07-21T06:21:20.391Z,17.2
2017-07-21T06:22:21.797Z,17.3
2017-07-21T06:23:23.200Z,17.3
2017-07-21T06:24:24.606Z,17.4
2017-07-21T06:25:26.017Z,17.3
2017-07-21T06:26:27.424Z,17.3
2017-07-21T06:27:28.828Z,17.4
2017-07-21T06:28:30.230Z,17.5
2017-07-21T06:29:31.649Z,17.5
2017-07-21T06:30:33.039Z,17.5
2017-07-21T06:31:34.450Z,17.5
2017-07-21T06:32:35.861Z,17.6
2017-07-21T06:33:37.265Z,17.6
2017-07-21T06:34:38.665Z,17.7
2017-07-21T06:35:40.070Z,17.7
2017-07-21T06:36:41.476Z,17.8
2017-07-21T06:37:42.877Z,17.9
2017-07-21T06:38:44.281Z,17.9
2017-07-21T06:39:45.693Z,17.9
2017-07-21T06:40:47.097Z,17.9
2017-07-21T06:41:48.504Z,18.0
2017-07-21T06:42:49.913Z,18.0
2017-07-21T06:43:51.326Z,18.2
2017-07-21T06:44:52.735Z,18.1
2017-07-21T06:45:54.136Z,18.3
2017-07-21T06:46:55.543Z,18.2
2017-07-21T06:47:56.943Z,18.2
2017-07-21T06:48:58.354Z,18.4
2017-07-21T06:49:59.769Z,18.4
2017-07-21T06:51:01.191Z,18.5
2017-07-21T06:52:02.635Z,18.4
2017-07-21T06:53:04.041Z,18.5
2017-07-21T06:54:05.446Z,18.5
2017-07-21T06:55:06.848Z,18.5
2017-07-21T06:56:08.253Z,18.6
2017-07-21T06:57:09.660Z,18.7
2017-07-21T06:58:11.058Z,18.9
2017-07-21T06:59:12.473Z,18.9
2017-07-21T07:00:13.886Z,19.0
2017-07-21T07:01:15.242Z,19.1
2017-07-21T07:02:16.658Z,19.0
2017-07-21T07:03:18.064Z,19.1
2017-07-21T07:04:19.463Z,19.1
2017-07-21T07:05:20.875Z,19.2
2017-07-21T07:06:22.282Z,19.2
2017-07-21T07:07:23.686Z,19.3
2017-07-21T07:08:25.092Z,19.4
2017-07-21T07:09:26.494Z,19.4
2017-07-21T07:10:27.894Z,19.4
2017-07-21T07:11:29.295Z,19.4
2017-07-21T07:12:30.709Z,19.5
2017-07-21T07:13:32.111Z,19.6
2017-07-21T07:14:33.513Z,19.8
2017-07-21T07:15:34.919Z,19.8
2017-07-21T07:16:36.329Z,19.9
2017-07-21T07:17:37.738Z,19.9
2017-07-21T07:18:39.137Z,19.9
2017-07-21T07:19:40.551Z,20.1
2017-07-21T07:20:41.954Z,20.0
2017-07-21T07:21:43.369Z,20.0
2017-07-21T07:22:44.776Z,20.1
2017-07-21T07:23:46.179Z,20.2
2017-07-21T07:24:47.585Z,20.1
2017-07-21T07:25:48.993Z,20.2
2017-07-21T07:26:50.402Z,20.3
2017-07-21T07:27:51.841Z,20.4
2017-07-21T07:28:53.243Z,20.3
2017-07-21T07:29:54.648Z,20.5
2017-07-21T07:30:56.050Z,20.5
2017-07-21T07:31:57.455Z,20.6
2017-07-21T07:32:58.867Z,20.6
2017-07-21T07:34:00.277Z,20.5
2017-07-21T07:35:01.693Z,20.6
2017-07-21T07:36:03.099Z,20.7
2017-07-21T07:37:04.503Z,20.7
2017-07-21T07:38:05.912Z,20.8
2017-07-21T07:39:07.326Z,20.8
2017-07-21T07:40:08.729Z,20.9
2017-07-21T07:41:10.139Z,20.9
2017-07-21T07:42:11.547Z,21.0
2017-07-21T07:43:12.989Z,21.0
2017-07-21T07:44:15.874Z,21.0
2017-07-21T07:45:17.292Z,21.1
2017-07-21T07:46:18.684Z,21.2
2017-07-21T07:47:20.090Z,21.3
2017-07-21T07:48:21.497Z,21.2
2017-07-21T07:49:22.903Z,21.3
2017-07-21T07:50:24.309Z,21.3
2017-07-21T07:51:25.710Z,21.4
2017-07-21T07:52:27.117Z,21.5
2017-07-21T07:53:28.529Z,21.7
2017-07-21T07:54:29.935Z,21.7
2017-07-21T07:55:31.343Z,21.7
2017-07-21T07:56:32.752Z,21.8
2017-07-21T07:57:34.161Z,21.8
2017-07-21T07:58:35.570Z,21.8
2017-07-21T07:59:36.976Z,21.9
2017-07-21T08:00:38.383Z,21.9
2017-07-21T08:01:39.796Z,22.0
2017-07-21T08:02:41.207Z,22.1
2017-07-21T08:03:42.630Z,22.2
2017-07-21T08:04:44.037Z,22.2
2017-07-21T08:05:45.442Z,22.3
2017-07-21T08:06:46.848Z,22.3
2017-07-21T08:07:48.251Z,22.4
2017-07-21T08:08:49.711Z,22.4
2017-07-21T08:09:51.111Z,22.4
2017-07-21T08:10:52.514Z,22.5
2017-07-21T08:11:53.925Z,22.6
2017-07-21T08:12:55.333Z,22.7
2017-07-21T08:13:56.742Z,22.7
2017-07-21T08:14:58.151Z,22.7
2017-07-21T08:15:59.557Z,22.8
2017-07-21T08:17:00.970Z,22.9
2017-07-21T08:18:02.380Z,22.8
2017-07-21T08:19:03.790Z,23.0
2017-07-21T08:20:05.202Z,23.0
2017-07-21T08:21:06.603Z,23.0
2017-07-21T08:22:08.028Z,23.0
2017-07-21T08:23:09.452Z,23.1
2017-07-21T08:24:10.862Z,23.1
2017-07-21T08:25:12.272Z,23.1
2017-07-21T08:26:13.684Z,23.1
2017-07-21T08:27:15.090Z,23.2
2017-07-21T08:28:16.534Z,23.3
2017-07-21T08:29:17.955Z,23.3
2017-07-21T08:30:19.367Z,23.3
2017-07-21T08:31:20.780Z,23.5
2017-07-21T08:32:22.189Z,23.5
2017-07-21T08:33:23.591Z,23.6
2017-07-21T08:34:25.006Z,23.6
2017-07-21T08:35:26.439Z,23.7
2017-07-21T08:36:27.848Z,23.8
2017-07-21T08:37:29.260Z,23.9
2017-07-21T08:38:30.673Z,23.9
2017-07-21T08:39:32.078Z,24.0
2017-07-21T08:40:33.484Z,24.1
2017-07-21T08:41:34.891Z,24.2
2017-07-21T08:42:36.302Z,24.2
2017-07-21T08:43:37.717Z,24.4
2017-07-21T08:44:39.127Z,24.4
2017-07-21T08:45:40.543Z,24.4
2017-07-21T08:46:41.942Z,24.4
2017-07-21T08:47:43.355Z,24.3
2017-07-21T08:48:44.768Z,24.3
2017-07-21T08:49:46.231Z,24.4
2017-07-21T08:50:47.680Z,24.4
2017-07-21T08:51:49.092Z,24.6
2017-07-21T08:52:50.505Z,24.5
2017-07-21T08:53:51.912Z,24.5
2017-07-21T08:54:53.327Z,24.5
2017-07-21T08:55:54.734Z,24.6
2017-07-21T08:56:56.140Z,24.7
2017-07-21T08:57:57.570Z,24.8
2017-07-21T08:58:58.976Z,24.9
2017-07-21T09:00:00.396Z,24.9
2017-07-21T09:01:01.800Z,25.0
2017-07-21T09:02:03.209Z,25.1
2017-07-21T09:03:04.619Z,25.1
2017-07-21T09:04:06.030Z,25.2
2017-07-21T09:05:07.442Z,25.2
2017-07-21T09:06:08.851Z,25.3
2017-07-21T09:07:10.260Z,25.3
2017-07-21T09:08:11.666Z,25.4
2017-07-21T09:09:13.089Z,25.3
2017-07-21T09:10:14.498Z,25.6
2017-07-21T09:11:15.905Z,25.6
2017-07-21T09:12:17.314Z,25.6
2017-07-21T09:13:18.729Z,25.6
2017-07-21T09:14:20.147Z,25.7
2017-07-21T09:15:21.546Z,25.9
2017-07-21T09:16:22.949Z,25.9
2017-07-21T09:17:24.360Z,26.1
2017-07-21T09:18:25.770Z,25.9
2017-07-21T09:19:27.182Z,26.0
2017-07-21T09:20:28.591Z,26.0
2017-07-21T09:21:30.001Z,26.0
2017-07-21T09:22:31.410Z,25.9
2017-07-21T09:23:32.820Z,25.9
2017-07-21T09:24:34.224Z,25.9
2017-07-21T09:25:35.646Z,25.8
2017-07-21T09:26:37.059Z,25.9
2017-07-21T09:27:38.470Z,26.0
2017-07-21T09:28:39.876Z,26.0
2017-07-21T09:29:41.281Z,26.0
2017-07-21T09:30:42.690Z,26.0
2017-07-21T09:31:44.097Z,26.2
2017-07-21T09:32:45.511Z,26.1
2017-07-21T09:33:46.918Z,26.2
2017-07-21T09:34:48.335Z,26.3
2017-07-21T09:35:49.741Z,26.3
2017-07-21T09:36:51.154Z,26.3
2017-07-21T09:37:52.556Z,26.5
2017-07-21T09:38:53.968Z,26.5
2017-07-21T09:39:55.377Z,26.6
2017-07-21T09:40:56.789Z,26.6
2017-07-21T09:41:58.696Z,26.7
2017-07-21T09:43:00.110Z,26.8
2017-07-21T09:44:01.543Z,26.8
2017-07-21T09:45:02.970Z,26.9
2017-07-21T09:46:04.379Z,26.9
2017-07-21T09:47:05.796Z,27.0
2017-07-21T09:48:07.208Z,27.1
2017-07-21T09:49:08.623Z,27.1
2017-07-21T09:50:10.032Z,27.2
2017-07-21T09:51:11.440Z,27.3
2017-07-21T09:52:12.846Z,27.3
2017-07-21T09:53:14.267Z,27.3
2017-07-21T09:54:15.682Z,27.3
2017-07-21T09:55:17.098Z,27.4
2017-07-21T09:56:18.507Z,27.5
2017-07-21T09:57:19.921Z,27.4
2017-07-21T09:58:21.325Z,27.5
2017-07-21T09:59:22.738Z,27.5
2017-07-21T10:00:24.141Z,27.6
2017-07-21T10:01:25.553Z,27.6
2017-07-21T10:02:26.965Z,27.6
2017-07-21T10:03:28.379Z,27.7
2017-07-21T10:04:29.793Z,27.8
2017-07-21T10:05:31.200Z,27.8
2017-07-21T10:06:32.602Z,27.8
2017-07-21T10:07:34.013Z,27.9
2017-07-21T10:08:35.430Z,27.8
2017-07-21T10:09:36.845Z,28.1
2017-07-21T10:10:38.256Z,28.1
2017-07-21T10:11:39.664Z,28.1
2017-07-21T10:12:41.069Z,28.1
2017-07-21T10:13:42.482Z,28.0
2017-07-21T10:14:43.898Z,28.1
2017-07-21T10:15:45.304Z,28.2
2017-07-21T10:16:46.714Z,28.3
2017-07-21T10:17:48.121Z,28.3
2017-07-21T10:18:49.536Z,28.3
2017-07-21T10:19:50.943Z,28.4
2017-07-21T10:20:52.349Z,28.5
2017-07-21T10:21:53.769Z,28.5
2017-07-21T10:22:55.173Z,28.6
2017-07-21T10:23:56.586Z,28.8
2017-07-21T10:24:58.010Z,28.8
2017-07-21T10:25:59.419Z,28.9
2017-07-21T10:27:00.828Z,28.9
2017-07-21T10:28:02.234Z,28.9
2017-07-21T10:29:03.648Z,28.9
2017-07-21T10:30:05.063Z,28.9
2017-07-21T10:31:06.472Z,29.0
2017-07-21T10:32:07.891Z,29.1
2017-07-21T10:33:09.349Z,29.2
2017-07-21T10:34:10.753Z,29.3
2017-07-21T10:35:12.162Z,29.2
2017-07-21T10:36:13.612Z,29.1
2017-07-21T10:37:15.030Z,29.1
2017-07-21T10:38:16.443Z,29.1
2017-07-21T10:39:17.855Z,29.2
2017-07-21T10:40:19.263Z,29.2
2017-07-21T10:41:20.681Z,29.3
2017-07-21T10:42:22.095Z,29.3
2017-07-21T10:43:23.516Z,29.2
2017-07-21T10:44:24.929Z,29.3
2017-07-21T10:45:27.061Z,29.3
2017-07-21T10:46:28.478Z,29.5
2017-07-21T10:47:29.890Z,29.7
2017-07-21T10:48:31.298Z,29.9
2017-07-21T10:49:32.705Z,30.0
2017-07-21T10:50:34.125Z,30.1
2017-07-21T10:51:35.542Z,30.2
2017-07-21T10:52:36.953Z,30.2
2017-07-21T10:53:38.370Z,30.3
2017-07-21T10:54:39.783Z,30.4
2017-07-21T10:55:41.198Z,30.5
2017-07-21T10:56:42.608Z,30.6
2017-07-21T10:57:44.020Z,30.8
2017-07-21T10:58:45.434Z,30.8
2017-07-21T10:59:46.856Z,30.9
2017-07-21T11:00:48.262Z,31.0
2017-07-21T11:01:49.677Z,31.2
2017-07-21T11:02:51.088Z,31.2
2017-07-21T11:03:52.500Z,31.4
2017-07-21T11:04:53.921Z,31.6
2017-07-21T11:05:55.332Z,31.7
2017-07-21T11:06:56.746Z,31.9
2017-07-21T11:07:58.127Z,32.0
2017-07-21T11:08:59.540Z,32.2
2017-07-21T11:10:00.959Z,32.3
2017-07-21T11:11:02.370Z,32.6
2017-07-21T11:12:03.786Z,32.9
2017-07-21T11:13:05.199Z,33.3
2017-07-21T11:14:06.618Z,33.6
2017-07-21T11:15:08.029Z,34.1
2017-07-21T11:16:09.446Z,34.4
2017-07-21T11:17:10.859Z,34.7
2017-07-21T11:18:12.273Z,35.1
2017-07-21T11:19:13.695Z,35.3
2017-07-21T11:20:15.107Z,35.7
2017-07-21T11:21:16.523Z,35.9
2017-07-21T11:22:17.937Z,35.9
2017-07-21T11:23:19.353Z,36.1
2017-07-21T11:24:20.767Z,36.2
2017-07-21T11:25:22.180Z,36.4
2017-07-21T11:26:23.590Z,36.6
2017-07-21T11:27:25.009Z,36.6
2017-07-21T11:28:26.422Z,36.3
2017-07-21T11:29:27.850Z,36.7
2017-07-21T11:30:29.274Z,36.9
2017-07-21T11:31:30.686Z,36.8
2017-07-21T11:32:32.182Z,37.1
2017-07-21T11:33:33.632Z,37.2
2017-07-21T11:34:35.034Z,37.1
2017-07-21T11:35:36.451Z,37.3
2017-07-21T11:36:37.871Z,36.6
2017-07-21T11:37:39.289Z,36.2
2017-07-21T11:38:40.706Z,36.0
2017-07-21T11:39:42.124Z,36.3
2017-07-21T11:40:43.545Z,36.6
2017-07-21T11:41:44.950Z,36.6
2017-07-21T11:42:46.379Z,36.3
2017-07-21T11:43:47.797Z,36.6
2017-07-21T11:44:49.214Z,36.8
2017-07-21T11:45:50.664Z,37.0
2017-07-21T11:46:52.083Z,37.1
2017-07-21T11:47:53.502Z,37.2
2017-07-21T11:48:54.918Z,37.3
2017-07-21T11:49:56.335Z,37.2
2017-07-21T11:50:57.822Z,37.1
2017-07-21T11:51:59.256Z,37.5
2017-07-21T11:53:00.672Z,37.7
2017-07-21T11:54:02.095Z,38.0
2017-07-21T11:55:03.515Z,38.1
2017-07-21T11:56:04.945Z,38.4
2017-07-21T11:57:06.372Z,38.4
2017-07-21T11:58:07.798Z,38.3
2017-07-21T11:59:09.263Z,38.4
2017-07-21T12:00:10.681Z,38.4
2017-07-21T12:01:12.858Z,38.2
2017-07-21T12:02:14.368Z,37.7
2017-07-21T12:03:16.064Z,37.7
2017-07-21T12:04:17.507Z,37.8
2017-07-21T12:05:18.932Z,37.9
2017-07-21T12:06:20.348Z,37.9
2017-07-21T12:07:21.851Z,37.9
2017-07-21T12:08:23.375Z,38.0
2017-07-21T12:09:24.829Z,38.0
2017-07-21T12:10:26.279Z,38.0
2017-07-21T12:11:27.900Z,37.7
2017-07-21T12:12:29.392Z,37.4
2017-07-21T12:13:30.819Z,37.5
2017-07-21T12:14:32.404Z,37.7
2017-07-21T12:15:33.907Z,37.9
2017-07-21T12:16:35.369Z,38.0
2017-07-21T12:17:36.823Z,38.1
2017-07-21T12:18:38.252Z,37.8
2017-07-21T12:19:39.895Z,37.9
2017-07-21T12:20:41.649Z,37.9
2017-07-21T12:21:43.113Z,38.1
2017-07-21T12:22:44.680Z,38.3
2017-07-21T12:23:46.454Z,38.3
2017-07-21T12:24:48.031Z,38.3
2017-07-21T12:25:49.505Z,38.3
2017-07-21T12:26:51.835Z,38.4
2017-07-21T12:27:53.382Z,38.3
2017-07-21T12:28:54.794Z,38.3
2017-07-21T12:29:56.211Z,38.4
2017-07-21T12:30:57.626Z,38.5
2017-07-21T12:31:59.052Z,38.4
2017-07-21T12:33:00.484Z,38.5
2017-07-21T12:34:01.924Z,38.3
2017-07-21T12:35:03.333Z,38.4
2017-07-21T12:36:04.757Z,38.4
2017-07-21T12:37:06.283Z,38.4
2017-07-21T12:38:07.711Z,38.3
2017-07-21T12:39:09.133Z,38.1
2017-07-21T12:40:10.567Z,38.1
2017-07-21T12:41:12.793Z,38.3
2017-07-21T12:42:14.393Z,38.2
2017-07-21T12:43:15.822Z,38.2
2017-07-21T12:44:17.238Z,38.2
2017-07-21T12:45:18.763Z,38.2
2017-07-21T12:46:20.204Z,38.2
2017-07-21T12:47:21.626Z,38.3
2017-07-21T12:48:23.704Z,38.3
2017-07-21T12:49:25.158Z,38.3
2017-07-21T12:50:26.574Z,38.5
2017-07-21T12:51:28.002Z,38.4
2017-07-21T12:52:29.421Z,38.5
2017-07-21T12:53:30.842Z,38.4
2017-07-21T12:54:32.260Z,38.4
2017-07-21T12:55:33.682Z,38.2
2017-07-21T12:56:35.099Z,37.7
2017-07-21T12:57:36.516Z,37.4
2017-07-21T12:58:37.935Z,37.6
2017-07-21T12:59:39.354Z,37.7
2017-07-21T13:00:40.772Z,38.0
2017-07-21T13:01:42.198Z,38.3
2017-07-21T13:02:43.617Z,38.4
2017-07-21T13:03:45.041Z,38.6
2017-07-21T13:04:46.464Z,38.6
2017-07-21T13:05:47.879Z,38.8
2017-07-21T13:06:49.300Z,38.9
2017-07-21T13:07:50.714Z,39.0
2017-07-21T13:08:52.137Z,38.9
2017-07-21T13:09:53.565Z,39.0
2017-07-21T13:10:54.982Z,39.2
2017-07-21T13:11:56.398Z,39.2
2017-07-21T13:12:57.818Z,39.3
2017-07-21T13:13:59.235Z,39.2
2017-07-21T13:15:00.654Z,39.4
2017-07-21T13:16:02.138Z,39.5
2017-07-21T13:17:03.557Z,39.5
2017-07-21T13:18:04.989Z,39.5
2017-07-21T13:19:06.405Z,39.8
2017-07-21T13:20:07.841Z,39.9
2017-07-21T13:21:09.255Z,39.7
2017-07-21T13:22:10.672Z,39.8
2017-07-21T13:23:12.118Z,39.8
2017-07-21T13:24:13.541Z,39.8
2017-07-21T13:25:14.959Z,40.0
2017-07-21T13:26:16.373Z,40.0
2017-07-21T13:27:17.899Z,39.8
2017-07-21T13:28:19.314Z,40.0
2017-07-21T13:29:20.732Z,40.1
2017-07-21T13:30:22.159Z,40.1
2017-07-21T13:31:23.576Z,40.1
2017-07-21T13:32:25.004Z,40.1
2017-07-21T13:33:26.421Z,40.1
2017-07-21T13:34:27.837Z,40.3
2017-07-21T13:35:29.257Z,40.2
2017-07-21T13:36:30.677Z,40.1
2017-07-21T13:37:32.141Z,40.2